PHX70 WIII-KLAX
Flight info
| Callsign | PHX70 |
|---|---|
| Flight time | N/A |
| Altitude | 33000 |
| Route | AMBOY P648 VJN M646 MIA/N0503F340 B462 CAB/N0504F330 R597 PIBEM/N0500F350 R597 VIGOR A590 BUBDO Y83 MOE A590 KAGIS/N0482F370 A590 POROT OTR11 LEPKI DCT 40N160E 42N170E 42N180E/N0484F390 40N170W 39N160W 39N150W 39N140W/N0474F410 38N130W DCT ALLBE DCT PIRAT DCT BURGL IRNMN2 |
| Aircraft | A359/H-SDE2E3GHIJ3J4J5LM1ORWXY/LB1D1 |
Departure
| Time | N/A |
|---|---|
| Airport | Soekarno-Hatta International Airport (WIII) |
Arrival
| Time | 2026-05-06 21:05 |
|---|---|
| Airport | Los Angeles International Airport (KLAX) |
| Time | Latitude | Longitude | Altitude | Speed | Heading |
|---|---|---|---|---|---|
| 2026-05-06 20:31 | 36.02307 | -120.70618 | 41163 ft | 468 kts | 122° |
| 2026-05-06 20:32 | 36.00409 | -120.67402 | 41161 ft | 468 kts | 122° |
| 2026-05-06 20:32 | 35.96593 | -120.60954 | 41165 ft | 468 kts | 122° |
| 2026-05-06 20:33 | 35.92737 | -120.54471 | 41166 ft | 468 kts | 123° |
| 2026-05-06 20:33 | 35.88873 | -120.48013 | 41150 ft | 468 kts | 123° |
| 2026-05-06 20:34 | 35.85001 | -120.41532 | 41099 ft | 468 kts | 122° |
| 2026-05-06 20:34 | 35.83078 | -120.38309 | 40835 ft | 468 kts | 122° |
| 2026-05-06 20:34 | 35.81150 | -120.35079 | 40592 ft | 467 kts | 122° |
| 2026-05-06 20:34 | 35.79219 | -120.31846 | 40346 ft | 467 kts | 122° |
| 2026-05-06 20:35 | 35.77295 | -120.28626 | 40094 ft | 466 kts | 122° |
| 2026-05-06 20:35 | 35.75368 | -120.25406 | 39852 ft | 466 kts | 122° |
| 2026-05-06 20:35 | 35.73446 | -120.22196 | 39632 ft | 465 kts | 122° |
| 2026-05-06 20:35 | 35.71528 | -120.18997 | 39398 ft | 465 kts | 122° |
| 2026-05-06 20:36 | 35.69608 | -120.15798 | 39162 ft | 464 kts | 122° |
| 2026-05-06 20:36 | 35.67668 | -120.12670 | 38939 ft | 466 kts | 126° |
| 2026-05-06 20:36 | 35.65307 | -120.09895 | 38672 ft | 474 kts | 139° |
| 2026-05-06 20:36 | 35.62553 | -120.07622 | 38405 ft | 477 kts | 143° |
| 2026-05-06 20:37 | 35.59725 | -120.05486 | 38127 ft | 478 kts | 144° |
| 2026-05-06 20:37 | 35.56881 | -120.03365 | 37865 ft | 478 kts | 144° |
| 2026-05-06 20:37 | 35.54034 | -120.01238 | 37586 ft | 479 kts | 144° |
| 2026-05-06 20:37 | 35.51189 | -119.99107 | 37322 ft | 479 kts | 144° |
| 2026-05-06 20:38 | 35.48343 | -119.96974 | 37063 ft | 479 kts | 144° |
| 2026-05-06 20:38 | 35.45495 | -119.94837 | 36810 ft | 480 kts | 144° |
| 2026-05-06 20:38 | 35.42645 | -119.92699 | 36546 ft | 480 kts | 144° |
| 2026-05-06 20:38 | 35.39797 | -119.90564 | 36294 ft | 481 kts | 144° |
| 2026-05-06 20:39 | 35.36978 | -119.88452 | 36041 ft | 481 kts | 144° |
| 2026-05-06 20:39 | 35.34119 | -119.86311 | 35641 ft | 482 kts | 144° |
| 2026-05-06 20:39 | 35.31261 | -119.84171 | 35006 ft | 483 kts | 144° |
| 2026-05-06 20:39 | 35.28432 | -119.81931 | 34244 ft | 484 kts | 141° |
| 2026-05-06 20:40 | 35.25712 | -119.79478 | 33413 ft | 486 kts | 139° |
| 2026-05-06 20:40 | 35.23021 | -119.76966 | 32794 ft | 485 kts | 139° |
| 2026-05-06 20:40 | 35.20346 | -119.74460 | 32305 ft | 485 kts | 139° |
| 2026-05-06 20:40 | 35.17654 | -119.71938 | 31780 ft | 487 kts | 139° |
| 2026-05-06 20:41 | 35.14961 | -119.69421 | 31243 ft | 489 kts | 139° |
| 2026-05-06 20:41 | 35.12256 | -119.66897 | 30707 ft | 490 kts | 139° |
| 2026-05-06 20:41 | 35.09543 | -119.64369 | 30161 ft | 492 kts | 139° |
| 2026-05-06 20:41 | 35.06814 | -119.61829 | 29552 ft | 493 kts | 139° |
| 2026-05-06 20:42 | 35.04077 | -119.59284 | 29020 ft | 495 kts | 139° |
| 2026-05-06 20:42 | 35.01343 | -119.56745 | 28488 ft | 494 kts | 139° |
| 2026-05-06 20:42 | 34.98649 | -119.54246 | 27963 ft | 490 kts | 139° |
| 2026-05-06 20:42 | 34.95912 | -119.51710 | 27432 ft | 486 kts | 139° |
| 2026-05-06 20:43 | 34.93259 | -119.49253 | 26911 ft | 482 kts | 139° |
| 2026-05-06 20:43 | 34.90595 | -119.46806 | 26388 ft | 479 kts | 140° |
| 2026-05-06 20:43 | 34.87916 | -119.44396 | 25861 ft | 476 kts | 140° |
| 2026-05-06 20:43 | 34.85249 | -119.42011 | 25332 ft | 473 kts | 140° |
| 2026-05-06 20:44 | 34.82609 | -119.39653 | 24809 ft | 469 kts | 140° |
| 2026-05-06 20:44 | 34.79984 | -119.37309 | 24276 ft | 466 kts | 140° |
| 2026-05-06 20:44 | 34.77384 | -119.34988 | 24061 ft | 463 kts | 140° |
| 2026-05-06 20:44 | 34.74784 | -119.32672 | 23892 ft | 463 kts | 140° |
| 2026-05-06 20:45 | 34.72189 | -119.30390 | 23274 ft | 462 kts | 140° |
| 2026-05-06 20:45 | 34.69592 | -119.28120 | 22733 ft | 457 kts | 141° |
| 2026-05-06 20:45 | 34.67005 | -119.25865 | 22228 ft | 453 kts | 141° |
| 2026-05-06 20:45 | 34.64491 | -119.23679 | 21748 ft | 449 kts | 141° |
| 2026-05-06 20:46 | 34.61944 | -119.21478 | 21251 ft | 448 kts | 141° |
| 2026-05-06 20:46 | 34.59407 | -119.19291 | 20749 ft | 445 kts | 141° |
| 2026-05-06 20:46 | 34.56888 | -119.17120 | 20262 ft | 442 kts | 141° |
| 2026-05-06 20:46 | 34.54408 | -119.14946 | 19771 ft | 438 kts | 140° |
| 2026-05-06 20:47 | 34.51963 | -119.12780 | 19292 ft | 435 kts | 140° |
| 2026-05-06 20:47 | 34.49554 | -119.10644 | 18803 ft | 431 kts | 140° |
| 2026-05-06 20:47 | 34.47127 | -119.08495 | 18300 ft | 428 kts | 140° |
| 2026-05-06 20:47 | 34.44729 | -119.06371 | 17778 ft | 426 kts | 140° |
| 2026-05-06 20:48 | 34.42342 | -119.04282 | 17269 ft | 422 kts | 141° |
| 2026-05-06 20:48 | 34.39961 | -119.02226 | 16811 ft | 416 kts | 141° |
| 2026-05-06 20:48 | 34.37603 | -119.00189 | 16329 ft | 413 kts | 141° |
| 2026-05-06 20:48 | 34.35282 | -118.98181 | 15852 ft | 411 kts | 141° |
| 2026-05-06 20:49 | 34.32983 | -118.96147 | 15375 ft | 408 kts | 140° |
| 2026-05-06 20:49 | 34.30738 | -118.94113 | 14898 ft | 404 kts | 140° |
| 2026-05-06 20:49 | 34.28493 | -118.92071 | 14424 ft | 401 kts | 140° |
| 2026-05-06 20:49 | 34.26275 | -118.90054 | 13948 ft | 397 kts | 140° |
| 2026-05-06 20:50 | 34.24089 | -118.88056 | 13680 ft | 394 kts | 139° |
| 2026-05-06 20:50 | 34.21912 | -118.86056 | 13560 ft | 393 kts | 139° |
| 2026-05-06 20:50 | 34.19722 | -118.84043 | 13283 ft | 394 kts | 139° |
| 2026-05-06 20:50 | 34.17553 | -118.82052 | 12782 ft | 390 kts | 139° |
| 2026-05-06 20:51 | 34.15471 | -118.79999 | 12353 ft | 385 kts | 135° |
| 2026-05-06 20:51 | 34.13485 | -118.77852 | 11926 ft | 382 kts | 134° |
| 2026-05-06 20:51 | 34.11535 | -118.75713 | 11509 ft | 380 kts | 134° |
| 2026-05-06 20:51 | 34.09579 | -118.73574 | 11097 ft | 378 kts | 134° |
| 2026-05-06 20:52 | 34.07632 | -118.71452 | 10691 ft | 375 kts | 134° |
| 2026-05-06 20:52 | 34.05703 | -118.69348 | 10382 ft | 372 kts | 135° |
| 2026-05-06 20:52 | 34.03839 | -118.67203 | 10178 ft | 368 kts | 127° |
| 2026-05-06 20:52 | 34.02616 | -118.64556 | 10125 ft | 360 kts | 104° |
| 2026-05-06 20:53 | 34.02203 | -118.61600 | 10131 ft | 356 kts | 92° |
| 2026-05-06 20:53 | 34.02023 | -118.58622 | 10129 ft | 356 kts | 91° |
| 2026-05-06 20:53 | 34.01833 | -118.55644 | 10126 ft | 357 kts | 92° |
| 2026-05-06 20:53 | 34.01609 | -118.52673 | 10126 ft | 350 kts | 93° |
| 2026-05-06 20:54 | 34.01369 | -118.49828 | 10034 ft | 333 kts | 93° |
| 2026-05-06 20:54 | 34.01130 | -118.47136 | 9830 ft | 321 kts | 93° |
| 2026-05-06 20:54 | 34.01177 | -118.44523 | 9607 ft | 305 kts | 79° |
| 2026-05-06 20:54 | 34.01570 | -118.42081 | 9403 ft | 294 kts | 76° |
| 2026-05-06 20:55 | 34.01998 | -118.39715 | 8970 ft | 289 kts | 75° |
| 2026-05-06 20:55 | 34.02408 | -118.37274 | 7874 ft | 311 kts | 77° |
| 2026-05-06 20:55 | 34.02780 | -118.34658 | 7031 ft | 320 kts | 79° |
| 2026-05-06 20:55 | 34.03071 | -118.31969 | 6229 ft | 327 kts | 82° |
| 2026-05-06 20:56 | 34.03275 | -118.29208 | 5349 ft | 335 kts | 84° |
| 2026-05-06 20:56 | 34.03463 | -118.26397 | 4641 ft | 334 kts | 80° |
| 2026-05-06 20:56 | 34.03843 | -118.23691 | 4361 ft | 321 kts | 78° |
| 2026-05-06 20:56 | 34.04199 | -118.21209 | 4108 ft | 309 kts | 79° |
| 2026-05-06 20:57 | 34.04520 | -118.18789 | 3826 ft | 299 kts | 80° |
| 2026-05-06 20:57 | 34.04832 | -118.16308 | 3581 ft | 289 kts | 81° |
| 2026-05-06 20:57 | 34.05103 | -118.14045 | 3374 ft | 280 kts | 82° |
| 2026-05-06 20:57 | 34.05172 | -118.11743 | 3174 ft | 269 kts | 96° |
| 2026-05-06 20:58 | 34.04619 | -118.09715 | 3001 ft | 258 kts | 122° |
| 2026-05-06 20:58 | 34.03397 | -118.08246 | 2809 ft | 246 kts | 151° |
| 2026-05-06 20:58 | 34.01811 | -118.07687 | 2634 ft | 234 kts | 181° |
| 2026-05-06 20:58 | 34.00282 | -118.08137 | 2507 ft | 222 kts | 208° |
| 2026-05-06 20:59 | 33.98984 | -118.09068 | 2396 ft | 212 kts | 218° |
| 2026-05-06 20:59 | 33.97982 | -118.10307 | 2187 ft | 204 kts | 244° |
| 2026-05-06 20:59 | 33.97777 | -118.11912 | 2119 ft | 189 kts | 269° |
| 2026-05-06 20:59 | 33.97735 | -118.13404 | 2135 ft | 171 kts | 266° |
| 2026-05-06 21:00 | 33.97682 | -118.14793 | 2117 ft | 163 kts | 265° |
| 2026-05-06 21:00 | 33.97601 | -118.16167 | 2100 ft | 165 kts | 264° |
| 2026-05-06 21:00 | 33.97489 | -118.17544 | 2136 ft | 165 kts | 263° |
| 2026-05-06 21:00 | 33.97359 | -118.18921 | 2125 ft | 166 kts | 262° |
| 2026-05-06 21:01 | 33.97222 | -118.20295 | 2119 ft | 165 kts | 262° |
| 2026-05-06 21:01 | 33.97088 | -118.21672 | 2123 ft | 164 kts | 262° |
| 2026-05-06 21:01 | 33.96957 | -118.23024 | 2131 ft | 165 kts | 262° |
| 2026-05-06 21:01 | 33.96820 | -118.24424 | 1825 ft | 171 kts | 262° |
| 2026-05-06 21:02 | 33.96681 | -118.25815 | 1631 ft | 164 kts | 262° |
| 2026-05-06 21:02 | 33.96540 | -118.27166 | 1489 ft | 161 kts | 262° |
| 2026-05-06 21:02 | 33.96402 | -118.28502 | 1357 ft | 160 kts | 263° |
| 2026-05-06 21:02 | 33.96272 | -118.29835 | 1253 ft | 161 kts | 262° |
| 2026-05-06 21:03 | 33.96136 | -118.31162 | 1142 ft | 158 kts | 261° |
| 2026-05-06 21:03 | 33.95996 | -118.32481 | 1093 ft | 160 kts | 262° |
| 2026-05-06 21:03 | 33.95880 | -118.33832 | 833 ft | 164 kts | 263° |
| 2026-05-06 21:03 | 33.95742 | -118.35162 | 677 ft | 157 kts | 262° |
| 2026-05-06 21:04 | 33.95591 | -118.36474 | 583 ft | 158 kts | 262° |
| 2026-05-06 21:04 | 33.95460 | -118.37786 | 385 ft | 157 kts | 262° |
| 2026-05-06 21:04 | 33.95334 | -118.39069 | 242 ft | 154 kts | 261° |
| 2026-05-06 21:04 | 33.95203 | -118.40328 | 132 ft | 144 kts | 263° |
| 2026-05-06 21:05 | 33.95103 | -118.41253 | 128 ft | 92 kts | 263° |
| 2026-05-06 21:05 | 33.94993 | -118.41831 | 127 ft | 52 kts | 238° |
| 2026-05-06 21:05 | 33.94884 | -118.42008 | 126 ft | 0 kts | 232° |
| 2026-05-06 21:06 | 33.94852 | -118.42060 | 125 ft | 15 kts | 232° |
| 2026-05-06 21:06 | 33.94760 | -118.42205 | 121 ft | 28 kts | 234° |
| 2026-05-06 21:06 | 33.94702 | -118.42217 | 125 ft | 8 kts | 119° |
| 2026-05-06 21:07 | 33.94696 | -118.42075 | 132 ft | 26 kts | 83° |
| 2026-05-06 21:07 | 33.94711 | -118.41929 | 132 ft | 17 kts | 83° |
| 2026-05-06 21:07 | 33.94733 | -118.41709 | 128 ft | 35 kts | 81° |
| 2026-05-06 21:07 | 33.94776 | -118.41405 | 128 ft | 34 kts | 76° |
| 2026-05-06 21:08 | 33.94813 | -118.41088 | 132 ft | 23 kts | 83° |
| 2026-05-06 21:08 | 33.94817 | -118.40926 | 124 ft | 17 kts | 116° |
| 2026-05-06 21:08 | 33.94717 | -118.40842 | 128 ft | 11 kts | 140° |
| 2026-05-06 21:08 | 33.94713 | -118.40838 | 128 ft | 0 kts | 140° |